Time;durP1;ratioP1;P1;durP2;ratioP2;P2;SDS_P1;SDS_P2;PMS_P1;PMS_P2;Temp;Humidity;BMP_temperature;BMP_pressure;BME280_temperature;BME280_humidity;BME280_pressure;Samples;Min_cycle;Max_cycle;Signal;HPM_P1;HPM_P2
2024/03/28 00:02:02;;;;;;;2.47;1.42;;;7.20;99.90;;;;;;5063313;28;20044;-69
2024/03/28 00:04:28;;;;;;;2.80;1.35;;;7.30;99.90;;;;;;5060750;28;20033;-68
2024/03/28 00:06:54;;;;;;;3.55;1.38;;;7.20;99.90;;;;;;5064958;28;20537;-69
2024/03/28 00:09:20;;;;;;;3.58;2.22;;;7.20;99.90;;;;;;5049156;28;20040;-70
2024/03/28 00:11:46;;;;;;;2.75;1.88;;;7.10;99.90;;;;;;5064842;28;20040;-69
2024/03/28 00:14:16;;;;;;;4.60;2.42;;;7.20;99.90;;;;;;5058894;28;20062;-68
2024/03/28 00:16:42;;;;;;;3.05;1.85;;;7.10;99.90;;;;;;5064407;28;20040;-68
2024/03/28 00:19:08;;;;;;;3.17;1.63;;;7.20;99.90;;;;;;5064693;28;20046;-69
2024/03/28 00:21:35;;;;;;;2.85;1.98;;;7.10;99.90;;;;;;5062548;28;20101;-68
2024/03/28 00:24:00;;;;;;;3.78;2.20;;;7.10;99.90;;;;;;5061473;28;20044;-68
2024/03/28 00:26:26;;;;;;;4.82;2.28;;;7.10;99.90;;;;;;5053132;28;20036;-68
2024/03/28 00:28:52;;;;;;;3.05;1.90;;;7.10;99.90;;;;;;5055439;28;20184;-69
2024/03/28 00:31:18;;;;;;;2.92;2.15;;;7.10;99.90;;;;;;5062258;28;20496;-68
2024/03/28 00:33:43;;;;;;;5.30;2.25;;;7.10;99.90;;;;;;5061792;28;20042;-68
2024/03/28 00:36:09;;;;;;;3.78;2.03;;;7.10;99.90;;;;;;5058351;28;20529;-68
2024/03/28 00:38:35;;;;;;;5.15;2.50;;;7.10;99.90;;;;;;5062571;28;20098;-69
2024/03/28 00:41:02;;;;;;;3.88;2.47;;;7.10;99.90;;;;;;5056073;28;20066;-68
2024/03/28 00:43:28;;;;;;;2.80;1.90;;;7.10;99.90;;;;;;5060883;28;20040;-69
2024/03/28 00:45:54;;;;;;;2.95;1.80;;;7.10;99.90;;;;;;5058341;28;20460;-68
2024/03/28 00:48:22;;;;;;;3.60;2.63;;;7.00;99.90;;;;;;5049719;28;20332;-68
2024/03/28 00:51:01;;;;;;;3.22;2.20;;;7.10;99.90;;;;;;5059810;28;20036;-68
2024/03/28 00:53:27;;;;;;;2.58;1.95;;;7.10;99.90;;;;;;5066350;28;20040;-69
2024/03/28 00:55:53;;;;;;;5.43;2.40;;;7.10;99.90;;;;;;5075502;28;20053;-68
2024/03/28 00:58:19;;;;;;;12.52;3.10;;;7.10;99.90;;;;;;5066622;28;20036;-68
2024/03/28 01:00:47;;;;;;;4.35;2.63;;;7.10;99.90;;;;;;5064605;28;20703;-69
2024/03/28 01:03:13;;;;;;;3.55;2.40;;;7.10;99.90;;;;;;5063594;28;20040;-70
2024/03/28 01:05:40;;;;;;;5.28;2.63;;;7.10;99.90;;;;;;5081287;28;20052;-70
2024/03/28 01:08:05;;;;;;;3.25;1.92;;;7.00;99.90;;;;;;5070325;28;20086;-68
2024/03/28 01:10:31;;;;;;;4.28;2.92;;;7.00;99.90;;;;;;5052223;28;20500;-69
2024/03/28 01:12:57;;;;;;;3.10;2.05;;;7.10;99.90;;;;;;5069980;28;20408;-69
2024/03/28 01:15:23;;;;;;;4.43;2.30;;;7.00;99.90;;;;;;5067638;28;20064;-68
2024/03/28 01:17:49;;;;;;;2.45;2.08;;;6.90;99.90;;;;;;5065706;28;20143;-68
2024/03/28 01:20:14;;;;;;;5.03;2.40;;;7.00;99.90;;;;;;5066354;28;20123;-68
2024/03/28 01:22:40;;;;;;;1.98;1.55;;;7.00;99.90;;;;;;5064982;28;20485;-69
2024/03/28 01:25:07;;;;;;;6.55;3.78;;;7.00;99.90;;;;;;5054876;28;20105;-69
2024/03/28 01:27:35;;;;;;;5.07;2.60;;;7.00;99.90;;;;;;5064828;28;20032;-69
2024/03/28 01:30:01;;;;;;;3.95;2.67;;;7.00;99.90;;;;;;5064948;28;20048;-68
2024/03/28 01:32:26;;;;;;;3.45;2.35;;;7.00;99.90;;;;;;5064247;28;20039;-68
2024/03/28 01:34:52;;;;;;;6.50;3.08;;;6.90;99.90;;;;;;5065121;28;20036;-68
2024/03/28 01:37:19;;;;;;;5.38;3.33;;;7.00;99.90;;;;;;5065720;28;20043;-69
2024/03/28 01:39:44;;;;;;;4.13;2.80;;;6.90;99.90;;;;;;5054296;28;20430;-69
2024/03/28 01:42:10;;;;;;;4.50;2.95;;;6.90;99.90;;;;;;5061657;28;20044;-69
2024/03/28 01:44:36;;;;;;;3.78;2.50;;;6.90;99.90;;;;;;5066715;28;20040;-68
2024/03/28 01:47:05;;;;;;;5.07;2.38;;;6.90;99.90;;;;;;5063421;28;20037;-68
2024/03/28 01:49:32;;;;;;;5.70;2.97;;;6.90;99.90;;;;;;5070978;28;20136;-68
2024/03/28 01:52:00;;;;;;;3.17;2.30;;;6.90;99.90;;;;;;5070468;28;20661;-68
2024/03/28 01:54:29;;;;;;;3.90;2.75;;;6.90;99.90;;;;;;5070050;28;20041;-69
2024/03/28 01:56:56;;;;;;;4.45;2.60;;;6.90;99.90;;;;;;5048902;28;20396;-69
2024/03/28 01:59:23;;;;;;;4.65;2.92;;;6.80;99.90;;;;;;5065703;28;20540;-69
2024/03/28 02:01:50;;;;;;;4.85;2.80;;;6.80;99.90;;;;;;5063099;28;20032;-68
2024/03/28 02:04:16;;;;;;;4.88;2.92;;;6.80;99.90;;;;;;5068191;28;20036;-69
2024/03/28 02:06:42;;;;;;;4.43;3.00;;;6.90;99.90;;;;;;5063823;28;20032;-68
2024/03/28 02:09:08;;;;;;;3.92;2.70;;;6.80;99.90;;;;;;5081683;28;20051;-69
2024/03/28 02:11:34;;;;;;;4.38;2.75;;;6.80;99.90;;;;;;5060934;28;20145;-68
2024/03/28 02:14:01;;;;;;;5.75;3.22;;;6.80;99.90;;;;;;5054028;28;20040;-70
2024/03/28 02:16:27;;;;;;;3.20;2.50;;;6.80;99.90;;;;;;5065835;28;20098;-69
2024/03/28 02:18:56;;;;;;;4.40;2.55;;;6.80;99.90;;;;;;5060702;28;20446;-69
2024/03/28 02:21:22;;;;;;;3.92;2.85;;;6.70;99.90;;;;;;5063095;28;20041;-69
2024/03/28 02:23:50;;;;;;;6.15;2.90;;;6.70;99.90;;;;;;5062849;28;20116;-69
2024/03/28 02:26:17;;;;;;;4.10;2.78;;;6.70;99.90;;;;;;5058234;28;20064;-68
2024/03/28 02:28:43;;;;;;;5.53;3.58;;;6.70;99.90;;;;;;5058324;28;20075;-68
2024/03/28 02:31:08;;;;;;;5.78;3.03;;;6.70;99.90;;;;;;5063193;28;20508;-69
2024/03/28 02:33:39;;;;;;;3.60;2.53;;;6.70;99.90;;;;;;5063610;28;20093;-68
2024/03/28 02:36:05;;;;;;;3.78;3.20;;;6.70;99.90;;;;;;5065495;28;20076;-68
2024/03/28 02:38:31;;;;;;;5.13;2.72;;;6.70;99.90;;;;;;5056237;28;20450;-68
2024/03/28 02:40:57;;;;;;;4.68;2.90;;;6.70;99.90;;;;;;5061376;28;20174;-68
2024/03/28 02:43:23;;;;;;;3.92;3.03;;;6.70;99.90;;;;;;5066784;28;20119;-68
2024/03/28 02:45:49;;;;;;;4.30;2.97;;;6.70;99.90;;;;;;5086564;28;20406;-69
2024/03/28 02:48:15;;;;;;;5.38;3.42;;;6.70;99.90;;;;;;5067566;28;20037;-68
2024/03/28 02:50:41;;;;;;;5.00;2.92;;;6.70;99.90;;;;;;5062801;28;20040;-68
2024/03/28 02:53:07;;;;;;;4.63;2.58;;;6.70;99.90;;;;;;5067813;28;20115;-69
2024/03/28 02:55:33;;;;;;;5.45;2.80;;;6.70;99.90;;;;;;5066375;28;20051;-68
2024/03/28 02:57:58;;;;;;;10.13;4.15;;;6.70;99.90;;;;;;5053771;28;20047;-69
2024/03/28 03:00:24;;;;;;;5.05;3.28;;;6.70;99.90;;;;;;5069095;28;20038;-68
2024/03/28 03:02:50;;;;;;;6.30;3.35;;;6.70;99.90;;;;;;5067484;28;20040;-70
2024/03/28 03:05:15;;;;;;;4.80;2.88;;;6.70;99.90;;;;;;5075832;28;20051;-69
2024/03/28 03:07:41;;;;;;;6.80;3.20;;;6.70;99.90;;;;;;5061541;28;20071;-68
2024/03/28 03:10:07;;;;;;;4.88;2.88;;;6.70;99.90;;;;;;5062186;28;20106;-68
2024/03/28 03:12:33;;;;;;;7.60;4.07;;;6.70;99.90;;;;;;5056581;28;20087;-68
2024/03/28 03:14:58;;;;;;;4.68;2.60;;;6.70;99.90;;;;;;5055916;28;20551;-68
2024/03/28 03:17:25;;;;;;;11.18;3.78;;;6.80;99.90;;;;;;5060738;28;20037;-69
2024/03/28 03:19:55;;;;;;;4.05;3.10;;;6.80;99.90;;;;;;5068685;28;20526;-68
2024/03/28 03:22:22;;;;;;;4.85;3.15;;;6.80;99.90;;;;;;5053245;28;20032;-68
2024/03/28 03:24:48;;;;;;;6.45;3.80;;;6.80;99.90;;;;;;5059445;28;20032;-68
2024/03/28 03:27:17;;;;;;;7.00;2.88;;;6.80;99.90;;;;;;5060913;28;20075;-68
2024/03/28 03:35:11;;;;;;;4.45;3.22;;;6.80;99.90;;;;;;5061788;28;20054;-68
2024/03/28 03:37:37;;;;;;;5.53;3.22;;;6.80;99.90;;;;;;5079988;28;20506;-68
2024/03/28 03:40:08;;;;;;;4.68;3.15;;;6.80;99.90;;;;;;5062080;28;20075;-69
2024/03/28 03:42:35;;;;;;;4.22;2.80;;;6.80;99.90;;;;;;5063331;28;20119;-69
2024/03/28 03:45:01;;;;;;;3.92;2.83;;;6.80;99.90;;;;;;5064391;28;20040;-69
2024/03/28 03:47:26;;;;;;;6.97;4.10;;;6.80;99.90;;;;;;5060924;28;20044;-68
2024/03/28 03:49:52;;;;;;;7.07;4.47;;;6.80;99.90;;;;;;5052431;28;20417;-69
2024/03/28 03:52:18;;;;;;;6.00;3.42;;;6.80;99.90;;;;;;5061554;28;20052;-68
2024/03/28 03:54:44;;;;;;;5.65;3.65;;;6.70;99.90;;;;;;5066077;28;20043;-68
2024/03/28 03:57:11;;;;;;;8.00;4.70;;;6.70;99.90;;;;;;5058106;28;20064;-69
2024/03/28 03:59:38;;;;;;;4.72;3.35;;;6.70;99.90;;;;;;5084979;28;20108;-68
2024/03/28 04:02:05;;;;;;;5.75;3.22;;;6.70;99.90;;;;;;5060136;28;20507;-69
2024/03/28 04:04:31;;;;;;;5.88;3.80;;;6.60;99.90;;;;;;5061294;28;20036;-68
2024/03/28 04:06:57;;;;;;;5.07;3.47;;;6.60;99.90;;;;;;5052104;28;20028;-68
2024/03/28 04:09:23;;;;;;;4.32;2.35;;;6.70;99.90;;;;;;5066303;28;20044;-68
2024/03/28 04:11:50;;;;;;;7.22;3.67;;;6.70;99.90;;;;;;5052385;28;20048;-69
2024/03/28 04:14:16;;;;;;;6.82;3.47;;;6.60;99.90;;;;;;5064469;28;20040;-68
2024/03/28 04:16:42;;;;;;;7.70;3.67;;;6.70;99.90;;;;;;5060893;28;20365;-68
2024/03/28 04:19:08;;;;;;;4.78;2.72;;;6.60;99.90;;;;;;5064274;28;20048;-69
2024/03/28 04:21:34;;;;;;;8.70;4.20;;;6.70;99.90;;;;;;5048020;28;20052;-68
2024/03/28 04:24:04;;;;;;;5.68;3.88;;;6.70;99.90;;;;;;5064540;28;20125;-68
2024/03/28 04:26:31;;;;;;;7.13;4.05;;;6.70;99.90;;;;;;5064012;28;20036;-69
2024/03/28 04:28:57;;;;;;;4.88;3.35;;;6.70;99.90;;;;;;5047340;28;20067;-68
2024/03/28 04:31:22;;;;;;;7.03;4.22;;;6.70;99.90;;;;;;5064660;28;20116;-68
2024/03/28 04:33:48;;;;;;;5.70;3.83;;;6.70;99.90;;;;;;5063097;28;20040;-69
2024/03/28 04:36:15;;;;;;;6.68;3.40;;;6.80;99.90;;;;;;5063624;28;20093;-68
2024/03/28 04:38:42;;;;;;;6.10;3.70;;;6.80;99.90;;;;;;5060252;28;20113;-68
2024/03/28 04:41:09;;;;;;;5.35;3.03;;;6.80;99.90;;;;;;5069716;28;20122;-68
2024/03/28 04:43:35;;;;;;;5.70;3.53;;;6.80;99.90;;;;;;5062765;28;20399;-68
2024/03/28 04:46:01;;;;;;;6.10;3.42;;;6.80;99.90;;;;;;5065829;28;20036;-70
2024/03/28 04:48:27;;;;;;;4.43;2.85;;;6.80;99.90;;;;;;5078808;28;20044;-68
2024/03/28 04:50:53;;;;;;;16.52;4.15;;;6.80;99.90;;;;;;5084590;28;20043;-68
2024/03/28 04:53:19;;;;;;;5.40;3.22;;;6.80;99.90;;;;;;5066190;28;20121;-70
2024/03/28 04:55:45;;;;;;;5.15;3.50;;;6.90;99.90;;;;;;5082269;28;20064;-70
2024/03/28 04:58:11;;;;;;;6.75;3.90;;;6.80;99.90;;;;;;5066692;28;20052;-69
2024/03/28 05:00:38;;;;;;;5.65;3.30;;;6.90;99.90;;;;;;5058271;28;20043;-68
2024/03/28 05:03:04;;;;;;;6.10;3.80;;;6.90;99.90;;;;;;5072100;28;20050;-69
2024/03/28 05:05:29;;;;;;;4.38;3.53;;;6.90;99.90;;;;;;5065385;28;20036;-69
2024/03/28 05:07:55;;;;;;;8.77;5.18;;;6.90;99.90;;;;;;5068883;28;20035;-70
2024/03/28 05:10:21;;;;;;;7.35;4.40;;;6.80;99.90;;;;;;5058855;28;20044;-69
2024/03/28 05:12:46;;;;;;;3.72;2.80;;;6.80;99.90;;;;;;5066402;28;20042;-69
2024/03/28 05:15:12;;;;;;;6.95;4.00;;;6.90;99.90;;;;;;5067115;28;20041;-69
2024/03/28 05:17:38;;;;;;;7.97;4.45;;;6.90;99.90;;;;;;5067455;28;20033;-69
2024/03/28 05:20:04;;;;;;;8.07;4.97;;;6.90;99.90;;;;;;5068899;28;20051;-69
2024/03/28 05:22:30;;;;;;;7.03;5.05;;;6.90;99.90;;;;;;5068066;28;20431;-68
2024/03/28 05:24:55;;;;;;;9.32;4.45;;;6.80;99.90;;;;;;5064952;28;20037;-69
2024/03/28 05:27:22;;;;;;;7.40;4.05;;;6.80;99.90;;;;;;5063220;28;20147;-69
2024/03/28 05:29:48;;;;;;;7.47;4.35;;;6.80;99.90;;;;;;5065020;28;20137;-70
2024/03/28 05:32:14;;;;;;;7.90;4.70;;;6.80;99.90;;;;;;5065050;28;20072;-68
2024/03/28 05:34:41;;;;;;;7.15;4.22;;;6.80;99.90;;;;;;5069892;28;20566;-69
2024/03/28 05:37:08;;;;;;;6.88;4.32;;;6.80;99.90;;;;;;5068510;28;20044;-69
2024/03/28 05:39:34;;;;;;;7.15;4.28;;;6.80;99.90;;;;;;5060834;28;20123;-68
2024/03/28 05:41:59;;;;;;;8.30;5.03;;;6.70;99.90;;;;;;5053057;28;20152;-69
2024/03/28 05:44:25;;;;;;;5.38;4.03;;;6.80;99.90;;;;;;5045924;28;20090;-69
2024/03/28 05:46:51;;;;;;;7.35;4.32;;;6.70;99.90;;;;;;5081047;28;20041;-68
2024/03/28 05:49:16;;;;;;;8.82;4.40;;;6.70;99.90;;;;;;5062353;28;20484;-68
2024/03/28 05:51:42;;;;;;;5.55;3.65;;;6.70;99.90;;;;;;5064663;28;20075;-68
2024/03/28 05:54:08;;;;;;;8.35;4.90;;;6.70;99.90;;;;;;5053063;28;20511;-69
2024/03/28 05:56:34;;;;;;;9.15;3.80;;;6.70;99.90;;;;;;5059753;28;20143;-69
2024/03/28 05:59:00;;;;;;;6.80;4.30;;;6.70;99.90;;;;;;5073178;28;20058;-70
2024/03/28 06:01:25;;;;;;;7.07;3.97;;;6.70;99.90;;;;;;5055022;28;20040;-68
2024/03/28 06:03:51;;;;;;;9.80;4.57;;;6.70;99.90;;;;;;5069859;28;20042;-70
2024/03/28 06:06:17;;;;;;;4.55;3.55;;;6.80;99.90;;;;;;5072131;28;20404;-68
2024/03/28 06:08:43;;;;;;;7.50;4.15;;;6.80;99.90;;;;;;5067615;28;20043;-69
2024/03/28 06:11:09;;;;;;;9.00;4.40;;;6.80;99.90;;;;;;5064484;28;20101;-68
2024/03/28 06:13:34;;;;;;;6.45;3.97;;;6.80;99.90;;;;;;5051613;28;20094;-69
2024/03/28 06:16:01;;;;;;;6.85;4.78;;;6.80;99.90;;;;;;5067479;28;20048;-68
2024/03/28 06:18:27;;;;;;;8.13;3.55;;;6.80;99.90;;;;;;5067431;28;20074;-69
2024/03/28 06:21:00;;;;;;;5.50;3.55;;;6.90;99.90;;;;;;5063776;28;20048;-69
2024/03/28 06:23:26;;;;;;;5.32;2.60;;;6.90;99.90;;;;;;5070212;28;20495;-68
2024/03/28 06:25:52;;;;;;;8.10;4.97;;;6.90;99.90;;;;;;5060341;28;20037;-69
2024/03/28 06:28:19;;;;;;;8.25;4.15;;;6.90;99.90;;;;;;5062257;28;20041;-69
2024/03/28 06:30:45;;;;;;;4.05;3.13;;;7.00;99.90;;;;;;5068699;28;20392;-69
2024/03/28 06:33:11;;;;;;;6.07;3.53;;;7.00;99.90;;;;;;5074853;28;20058;-70
2024/03/28 06:35:37;;;;;;;6.32;3.92;;;7.00;99.90;;;;;;5052880;28;20036;-70
2024/03/28 06:38:03;;;;;;;8.60;4.47;;;7.00;99.90;;;;;;5062024;28;20066;-69
2024/03/28 06:40:29;;;;;;;5.70;3.67;;;7.00;99.90;;;;;;5064625;28;20051;-69
2024/03/28 06:42:55;;;;;;;8.07;4.35;;;7.20;99.90;;;;;;5070403;28;20036;-69
2024/03/28 06:45:22;;;;;;;8.45;5.50;;;7.10;99.90;;;;;;5068263;28;20028;-69
2024/03/28 06:47:48;;;;;;;8.73;5.10;;;7.20;99.90;;;;;;5061482;28;20046;-69
2024/03/28 06:50:14;;;;;;;7.85;5.00;;;7.20;99.90;;;;;;5064336;28;20044;-70
2024/03/28 06:52:39;;;;;;;8.73;4.88;;;7.20;99.90;;;;;;5063646;28;20194;-70
2024/03/28 06:55:05;;;;;;;7.80;5.18;;;7.20;99.90;;;;;;5068051;28;20090;-69
2024/03/28 06:57:31;;;;;;;6.40;3.95;;;7.30;99.90;;;;;;5060247;28;20056;-70
2024/03/28 06:59:57;;;;;;;8.30;5.55;;;7.40;99.90;;;;;;5068354;28;20032;-69
2024/03/28 07:02:22;;;;;;;7.90;3.95;;;7.50;99.90;;;;;;5066393;28;20044;-70
2024/03/28 07:04:48;;;;;;;7.15;3.80;;;7.50;99.90;;;;;;5065388;28;20490;-69
2024/03/28 07:07:14;;;;;;;8.55;3.97;;;7.60;99.90;;;;;;5063377;28;20040;-69
2024/03/28 07:09:39;;;;;;;6.13;3.47;;;7.60;99.90;;;;;;5068486;28;20082;-69
2024/03/28 07:12:05;;;;;;;5.63;3.60;;;7.60;99.90;;;;;;5067828;28;20086;-68
2024/03/28 07:14:31;;;;;;;9.05;5.07;;;7.70;99.90;;;;;;5068077;28;20474;-70
2024/03/28 07:16:57;;;;;;;6.22;4.18;;;7.70;99.90;;;;;;5069867;28;20046;-70
2024/03/28 07:19:22;;;;;;;6.78;3.88;;;7.90;99.90;;;;;;5066146;28;20127;-70
2024/03/28 07:21:48;;;;;;;7.68;4.13;;;8.00;99.90;;;;;;5076854;28;20036;-69
2024/03/28 07:24:15;;;;;;;8.48;4.38;;;8.00;99.90;;;;;;5078225;28;20040;-70
2024/03/28 07:26:41;;;;;;;10.25;4.85;;;8.10;99.90;;;;;;5064612;28;20036;-70
2024/03/28 07:29:08;;;;;;;8.00;4.40;;;8.30;99.90;;;;;;5051403;28;20048;-70
2024/03/28 07:31:34;;;;;;;7.25;3.75;;;8.40;99.90;;;;;;5062735;28;20059;-70
2024/03/28 07:34:00;;;;;;;6.55;4.05;;;8.60;99.90;;;;;;5065925;28;20215;-70
2024/03/28 07:36:26;;;;;;;7.43;4.13;;;8.70;99.90;;;;;;5061751;28;20111;-70
2024/03/28 07:38:52;;;;;;;6.72;4.07;;;8.70;99.90;;;;;;5066636;28;20040;-70
2024/03/28 07:41:19;;;;;;;6.53;4.32;;;8.80;99.90;;;;;;5063508;28;20093;-70
2024/03/28 07:43:46;;;;;;;8.02;4.05;;;8.90;99.90;;;;;;5063732;28;20047;-70
2024/03/28 07:46:12;;;;;;;6.50;4.00;;;9.00;99.90;;;;;;5063285;28;20032;-70
2024/03/28 07:48:37;;;;;;;6.40;3.65;;;9.10;99.90;;;;;;5063466;28;20437;-70
2024/03/28 07:51:04;;;;;;;6.15;3.78;;;9.20;99.90;;;;;;5064906;28;20516;-70
2024/03/28 07:53:33;;;;;;;6.53;3.25;;;9.20;99.90;;;;;;5063641;28;20418;-70
2024/03/28 07:56:02;;;;;;;7.55;4.07;;;9.10;99.90;;;;;;5062880;28;20121;-70
2024/03/28 07:58:30;;;;;;;5.18;3.03;;;9.20;99.90;;;;;;5070569;28;20051;-70
2024/03/28 08:01:03;;;;;;;6.28;2.40;;;9.40;99.90;;;;;;5063400;28;20130;-71
2024/03/28 08:03:29;;;;;;;5.63;2.95;;;9.60;99.90;;;;;;5069341;28;20047;-70
2024/03/28 08:05:55;;;;;;;4.95;2.63;;;9.80;99.90;;;;;;5065510;28;20089;-70
2024/03/28 08:08:20;;;;;;;4.80;2.88;;;10.30;99.90;;;;;;5054153;28;20342;-70
2024/03/28 08:10:48;;;;;;;4.97;2.53;;;10.70;99.90;;;;;;5064076;28;20040;-71
2024/03/28 08:13:14;;;;;;;5.10;3.70;;;10.70;99.90;;;;;;5063574;28;20036;-69
2024/03/28 08:15:40;;;;;;;2.95;2.03;;;10.70;99.90;;;;;;5052422;28;20488;-70
2024/03/28 08:18:06;;;;;;;6.72;3.38;;;10.70;99.90;;;;;;5064487;28;20118;-70
2024/03/28 08:20:33;;;;;;;5.25;3.17;;;10.70;99.90;;;;;;5066094;28;20652;-69
2024/03/28 08:22:58;;;;;;;3.80;2.03;;;10.40;99.90;;;;;;5060804;28;20045;-71
2024/03/28 08:25:25;;;;;;;4.05;2.40;;;10.30;99.90;;;;;;5062426;28;20033;-70
2024/03/28 08:27:51;;;;;;;4.28;2.22;;;10.10;99.90;;;;;;5051446;28;20063;-70
2024/03/28 08:30:17;;;;;;;3.08;1.60;;;10.00;99.90;;;;;;5060722;28;20549;-70
2024/03/28 08:32:44;;;;;;;3.30;2.13;;;9.80;99.90;;;;;;5062685;28;20040;-70
2024/03/28 08:35:13;;;;;;;6.53;2.15;;;9.70;99.90;;;;;;5063551;28;20088;-70
2024/03/28 08:37:40;;;;;;;4.13;2.10;;;9.70;99.90;;;;;;5062809;28;20449;-70
2024/03/28 08:40:09;;;;;;;3.75;2.30;;;9.60;99.90;;;;;;5051010;28;20044;-70
2024/03/28 08:42:39;;;;;;;3.20;2.00;;;9.60;99.90;;;;;;5065049;28;20036;-70
2024/03/28 08:45:18;;;;;;;3.88;1.63;;;9.70;99.90;;;;;;5063901;28;20346;-70
2024/03/28 08:47:45;;;;;;;3.38;1.38;;;9.80;99.90;;;;;;5050941;28;20039;-71
2024/03/28 08:50:13;;;;;;;4.32;2.47;;;10.20;99.90;;;;;;5054476;28;20097;-70
2024/03/28 08:52:39;;;;;;;2.13;1.35;;;10.70;99.90;;;;;;5061102;28;20105;-71
2024/03/28 08:55:05;;;;;;;2.90;1.52;;;10.90;99.90;;;;;;5067749;28;20068;-70
2024/03/28 08:57:31;;;;;;;4.00;1.85;;;11.30;99.90;;;;;;5052734;28;20304;-71
2024/03/28 08:59:57;;;;;;;6.65;2.45;;;11.60;99.90;;;;;;5063612;28;20071;-71
2024/03/28 09:02:24;;;;;;;4.55;1.98;;;11.80;99.90;;;;;;5057417;28;20067;-71
2024/03/28 09:04:51;;;;;;;2.40;1.52;;;12.00;99.90;;;;;;5058948;28;20066;-71
2024/03/28 09:07:19;;;;;;;2.42;1.75;;;12.30;99.90;;;;;;5069619;28;20115;-71
2024/03/28 09:09:45;;;;;;;2.58;1.65;;;13.00;99.90;;;;;;5062380;28;20606;-71
2024/03/28 09:12:10;;;;;;;1.70;1.30;;;13.40;99.90;;;;;;5053619;28;20400;-71
2024/03/28 09:14:37;;;;;;;2.97;1.50;;;14.10;99.90;;;;;;5066295;28;20435;-71
2024/03/28 09:17:03;;;;;;;1.75;1.15;;;15.20;99.90;;;;;;5065682;28;20475;-72
2024/03/28 09:19:29;;;;;;;2.10;1.10;;;16.10;99.90;;;;;;5064385;28;20047;-72
2024/03/28 09:21:55;;;;;;;1.33;0.80;;;16.60;99.90;;;;;;5061686;28;20115;-72
2024/03/28 09:24:25;;;;;;;0.90;0.70;;;16.40;99.90;;;;;;5064031;28;20119;-72
2024/03/28 09:26:52;;;;;;;2.58;0.85;;;16.40;99.90;;;;;;5063150;28;20135;-72
2024/03/28 09:29:21;;;;;;;2.53;0.50;;;16.60;99.90;;;;;;5068567;28;20047;-70
2024/03/28 09:31:53;;;;;;;1.95;0.68;;;16.90;99.90;;;;;;5068567;28;20455;-71
2024/03/28 09:34:19;;;;;;;2.00;0.82;;;17.30;99.90;;;;;;5073959;28;20052;-72
2024/03/28 09:36:45;;;;;;;0.73;0.35;;;17.70;99.90;;;;;;5068385;28;21532;-71
2024/03/28 09:39:14;;;;;;;1.25;0.75;;;17.90;99.90;;;;;;5069450;28;20044;-72
2024/03/28 09:41:47;;;;;;;1.35;1.05;;;17.30;99.90;;;;;;5064245;28;20076;-71
2024/03/28 09:44:20;;;;;;;6.25;0.77;;;16.30;99.90;;;;;;5069551;28;20064;-71
2024/03/28 09:46:52;;;;;;;1.23;0.68;;;15.40;99.90;;;;;;5065385;28;20064;-70
2024/03/28 09:49:23;;;;;;;3.63;0.73;;;14.70;99.90;;;;;;5048294;28;20046;-71
2024/03/28 09:51:52;;;;;;;0.57;0.30;;;14.10;99.90;;;;;;5071942;28;20040;-70
2024/03/28 09:54:18;;;;;;;0.82;0.50;;;13.60;99.90;;;;;;5061609;28;20433;-71
2024/03/28 09:56:44;;;;;;;3.20;0.60;;;13.20;99.90;;;;;;5063564;28;20052;-70
2024/03/28 09:59:10;;;;;;;3.13;0.43;;;12.90;99.90;;;;;;5062684;28;20103;-70
2024/03/28 10:01:38;;;;;;;0.80;0.50;;;12.70;99.90;;;;;;5083345;28;20073;-70
2024/03/28 10:04:13;;;;;;;0.68;0.30;;;12.50;99.90;;;;;;5078023;28;20067;-70
2024/03/28 10:06:50;;;;;;;0.22;0.20;;;12.40;99.90;;;;;;5068411;28;20067;-70
2024/03/28 10:09:17;;;;;;;1.02;0.50;;;12.30;99.90;;;;;;5046947;28;20040;-70
2024/03/28 10:11:43;;;;;;;3.05;0.70;;;12.20;99.90;;;;;;5066740;28;20047;-71
2024/03/28 10:14:14;;;;;;;0.32;0.20;;;12.20;99.90;;;;;;5063573;28;20052;-70
2024/03/28 10:16:41;;;;;;;0.40;0.28;;;12.20;99.90;;;;;;5045413;28;20055;-70
2024/03/28 10:19:10;;;;;;;0.40;0.35;;;12.10;99.90;;;;;;5065796;28;20611;-70
2024/03/28 10:21:36;;;;;;;0.85;0.28;;;12.00;99.90;;;;;;5051460;28;20440;-69
2024/03/28 10:24:14;;;;;;;0.47;0.30;;;11.80;99.90;;;;;;5067048;28;20051;-70
2024/03/28 10:26:40;;;;;;;0.50;0.47;;;11.70;99.90;;;;;;5063995;28;20038;-70
2024/03/28 10:29:08;;;;;;;0.43;0.30;;;11.60;99.90;;;;;;5066183;28;20556;-69
2024/03/28 10:31:36;;;;;;;1.05;0.30;;;11.50;99.90;;;;;;5065952;28;20062;-69
2024/03/28 10:34:03;;;;;;;0.93;0.32;;;11.40;99.90;;;;;;5062625;28;20033;-69
2024/03/28 10:36:29;;;;;;;1.15;0.38;;;11.20;99.90;;;;;;5061675;28;20444;-69
2024/03/28 10:39:01;;;;;;;0.57;0.35;;;11.00;99.90;;;;;;5062401;28;20079;-69
2024/03/28 10:41:29;;;;;;;2.65;0.40;;;10.80;99.90;;;;;;5064613;28;20040;-69
2024/03/28 10:43:59;;;;;;;0.75;0.30;;;10.70;99.90;;;;;;5067004;28;20036;-69
2024/03/28 10:46:26;;;;;;;4.07;0.35;;;10.50;99.90;;;;;;5066277;28;20564;-69
2024/03/28 10:48:54;;;;;;;0.85;0.30;;;10.40;99.90;;;;;;5075524;28;20040;-69
2024/03/28 10:51:42;;;;;;;0.60;0.40;;;10.20;99.90;;;;;;5054333;28;20043;-69
2024/03/28 10:54:25;;;;;;;0.90;0.63;;;10.10;99.90;;;;;;5059340;28;20507;-69
2024/03/28 10:56:54;;;;;;;0.35;0.13;;;10.00;99.90;;;;;;5078993;28;20089;-70
2024/03/28 10:59:21;;;;;;;0.00;0.00;;;9.90;99.90;;;;;;5054099;28;20394;-68
2024/03/28 11:01:48;;;;;;;0.10;0.08;;;9.70;99.90;;;;;;5066230;28;20562;-69
2024/03/28 11:04:16;;;;;;;0.20;0.10;;;9.50;99.90;;;;;;5085294;28;20498;-69
2024/03/28 11:06:43;;;;;;;0.17;0.13;;;9.30;99.90;;;;;;5064536;28;20120;-70
2024/03/28 11:09:11;;;;;;;0.10;0.08;;;9.10;99.90;;;;;;5064602;28;20048;-70
2024/03/28 11:11:37;;;;;;;0.52;0.10;;;9.00;99.90;;;;;;5061332;28;20040;-69
2024/03/28 11:14:03;;;;;;;0.47;0.10;;;8.80;99.90;;;;;;5070773;28;20079;-70
2024/03/28 11:16:29;;;;;;;0.10;0.10;;;8.60;99.90;;;;;;5067590;28;20068;-69
2024/03/28 11:19:00;;;;;;;0.28;0.20;;;8.50;99.90;;;;;;5067352;28;20040;-70
2024/03/28 11:21:32;;;;;;;6.97;0.20;;;8.40;99.90;;;;;;5061225;28;20123;-69
2024/03/28 11:23:58;;;;;;;0.35;0.20;;;8.30;99.90;;;;;;5048550;28;20047;-70
2024/03/28 11:26:25;;;;;;;0.10;0.10;;;8.20;99.90;;;;;;5063851;28;20033;-70
2024/03/28 11:29:01;;;;;;;0.20;0.10;;;8.20;99.90;;;;;;5068285;28;20032;-70
2024/03/28 11:31:27;;;;;;;0.38;0.20;;;8.10;99.90;;;;;;5057539;28;20075;-70
2024/03/28 11:34:00;;;;;;;0.25;0.10;;;8.20;99.90;;;;;;5048358;28;20032;-71
2024/03/28 11:36:31;;;;;;;0.28;0.10;;;8.10;99.90;;;;;;5064616;28;20492;-71
2024/03/28 11:38:59;;;;;;;0.35;0.22;;;8.30;99.90;;;;;;5052679;28;20077;-71
2024/03/28 11:41:26;;;;;;;0.38;0.13;;;8.40;99.90;;;;;;5038699;28;20032;-72
2024/03/28 11:43:54;;;;;;;0.52;0.15;;;8.40;99.90;;;;;;5064764;28;20056;-72
2024/03/28 11:46:22;;;;;;;0.20;0.20;;;8.40;99.90;;;;;;5066797;28;20160;-72
2024/03/28 11:48:55;;;;;;;0.15;0.10;;;8.40;99.90;;;;;;5068330;28;20150;-72
2024/03/28 11:51:21;;;;;;;0.20;0.10;;;8.40;99.90;;;;;;5078289;28;20039;-74
2024/03/28 11:53:47;;;;;;;0.32;0.20;;;8.40;99.90;;;;;;5051904;28;20129;-73
2024/03/28 11:56:14;;;;;;;0.43;0.30;;;8.50;99.90;;;;;;5060859;28;20052;-73
2024/03/28 11:58:40;;;;;;;0.40;0.00;;;8.50;99.90;;;;;;5081929;28;20040;-73
2024/03/28 12:01:06;;;;;;;0.20;0.10;;;8.50;99.90;;;;;;5064040;28;20040;-74
2024/03/28 12:03:32;;;;;;;0.10;0.10;;;8.50;99.90;;;;;;5063800;28;20043;-73
2024/03/28 12:05:59;;;;;;;0.00;0.00;;;8.50;99.90;;;;;;5052738;28;20032;-75
2024/03/28 12:08:29;;;;;;;0.20;0.10;;;8.60;99.90;;;;;;5079128;28;20068;-73
2024/03/28 12:11:06;;;;;;;0.00;0.00;;;8.60;99.90;;;;;;5064702;28;20049;-74
2024/03/28 12:13:33;;;;;;;0.47;0.20;;;8.60;99.90;;;;;;5062691;28;20047;-73
2024/03/28 12:16:00;;;;;;;0.30;0.10;;;8.60;99.90;;;;;;5066545;28;20052;-72
2024/03/28 12:18:27;;;;;;;0.38;0.25;;;8.60;99.90;;;;;;5049236;28;20044;-73
2024/03/28 12:21:17;;;;;;;0.10;0.10;;;8.60;99.90;;;;;;5064842;28;20146;-72
2024/03/28 12:23:43;;;;;;;0.40;0.10;;;8.50;99.90;;;;;;5064814;28;20032;-71
2024/03/28 12:26:16;;;;;;;0.00;0.00;;;8.50;99.90;;;;;;5057633;28;20106;-71
2024/03/28 12:28:46;;;;;;;0.08;0.00;;;8.50;99.90;;;;;;5062127;28;20028;-72
2024/03/28 12:31:22;;;;;;;0.10;0.10;;;8.30;99.90;;;;;;5063887;28;20040;-70
2024/03/28 12:33:48;;;;;;;0.40;0.00;;;8.30;99.90;;;;;;5060312;28;20036;-70
2024/03/28 12:36:18;;;;;;;0.20;0.20;;;8.30;99.90;;;;;;5061803;28;20113;-70
2024/03/28 12:38:49;;;;;;;0.20;0.13;;;8.30;99.90;;;;;;5060925;28;20052;-70
2024/03/28 12:41:21;;;;;;;0.57;0.20;;;8.20;99.90;;;;;;5063955;28;20099;-70
2024/03/28 12:43:57;;;;;;;0.52;0.17;;;8.20;99.90;;;;;;5060450;28;20044;-70
2024/03/28 12:46:24;;;;;;;0.10;0.00;;;8.30;99.90;;;;;;5048627;28;20059;-71
2024/03/28 12:48:49;;;;;;;0.00;0.00;;;8.20;99.90;;;;;;5049062;28;20665;-71
2024/03/28 12:51:15;;;;;;;1.13;0.40;;;8.30;99.90;;;;;;5061226;28;20190;-71
2024/03/28 12:53:41;;;;;;;0.20;0.20;;;8.40;99.90;;;;;;5067289;28;20126;-70
2024/03/28 12:56:07;;;;;;;0.47;0.20;;;8.50;99.90;;;;;;5052511;28;20164;-71
2024/03/28 12:58:33;;;;;;;0.30;0.10;;;8.50;99.90;;;;;;5066823;28;20043;-71
2024/03/28 13:00:59;;;;;;;0.65;0.38;;;8.60;99.90;;;;;;5064801;28;20040;-71